createdAt,value
2023-03-30T00:01:00.649Z,3.20
2023-03-30T00:06:39.361Z,3.00
2023-03-30T00:12:20.802Z,3.20
2023-03-30T00:17:38.779Z,3.20
2023-03-30T00:23:00.732Z,3.60
2023-03-30T00:28:30.898Z,3.00
2023-03-30T00:34:01.183Z,3.00
2023-03-30T00:39:26.922Z,3.20
2023-03-30T00:51:01.505Z,3.40
2023-03-30T00:56:32.453Z,2.80
2023-03-30T01:02:19.026Z,2.80
2023-03-30T01:07:31.751Z,2.60
2023-03-30T01:12:49.528Z,2.50
2023-03-30T01:18:27.506Z,2.50
2023-03-30T01:24:24.506Z,2.60
2023-03-30T01:30:03.357Z,2.30
2023-03-30T01:35:49.500Z,2.70
2023-03-30T01:41:23.066Z,2.50
2023-03-30T01:47:16.214Z,2.30
2023-03-30T01:53:00.074Z,2.60
2023-03-30T01:58:52.297Z,2.80
2023-03-30T02:04:51.030Z,2.40
2023-03-30T02:10:08.275Z,2.80
2023-03-30T02:15:33.746Z,2.70
2023-03-30T02:20:47.757Z,2.60
2023-03-30T02:26:11.850Z,2.40
2023-03-30T02:32:01.920Z,2.60
2023-03-30T02:37:33.830Z,2.60
2023-03-30T02:43:12.540Z,2.40
2023-03-30T02:49:02.273Z,2.00
2023-03-30T02:55:19.344Z,2.40
2023-03-30T03:01:32.162Z,2.70
2023-03-30T03:07:32.423Z,2.60
2023-03-30T03:13:14.432Z,2.20
2023-03-30T03:19:02.152Z,2.50
2023-03-30T03:24:13.700Z,2.50
2023-03-30T03:29:50.061Z,2.50
2023-03-30T03:35:14.331Z,2.80
2023-03-30T03:40:32.869Z,2.90
2023-03-30T03:45:38.414Z,2.80
2023-03-30T03:50:49.326Z,2.20
2023-03-30T03:55:57.196Z,2.70
2023-03-30T04:01:20.013Z,3.40
2023-03-30T04:06:40.133Z,2.30
2023-03-30T04:11:45.053Z,2.80
2023-03-30T04:17:46.928Z,2.80
2023-03-30T04:23:14.327Z,3.20
2023-03-30T04:29:10.256Z,3.20
2023-03-30T04:34:46.577Z,3.60
2023-03-30T04:40:26.742Z,4.10
2023-03-30T04:46:25.742Z,4.20
2023-03-30T04:51:41.043Z,3.60
2023-03-30T04:57:18.318Z,4.10
2023-03-30T05:02:41.224Z,4.80
2023-03-30T05:08:41.848Z,3.80
2023-03-30T05:14:03.113Z,4.10
2023-03-30T05:19:40.790Z,4.40
2023-03-30T05:25:13.228Z,4.10
2023-03-30T05:30:37.126Z,4.30
2023-03-30T05:36:17.427Z,4.50
2023-03-30T05:41:57.245Z,4.50
2023-03-30T05:47:14.527Z,4.70
2023-03-30T05:52:44.621Z,4.60
2023-03-30T05:58:18.691Z,4.80
2023-03-30T06:03:44.936Z,5.10
2023-03-30T06:09:11.296Z,4.40
2023-03-30T06:14:15.722Z,4.90
2023-03-30T06:19:25.724Z,4.00
2023-03-30T06:24:33.840Z,4.20
2023-03-30T06:29:42.106Z,4.70
2023-03-30T06:34:44.902Z,4.40
2023-03-30T06:40:01.460Z,4.70
2023-03-30T06:45:04.894Z,5.20
2023-03-30T06:50:19.796Z,4.90
2023-03-30T07:02:00.596Z,4.20
2023-03-30T07:07:24.806Z,4.00
2023-03-30T07:12:33.163Z,3.60
2023-03-30T07:17:36.844Z,4.30
2023-03-30T07:22:46.673Z,4.20
2023-03-30T07:28:08.695Z,4.30
2023-03-30T07:33:16.346Z,4.10
2023-03-30T07:38:24.121Z,4.00
2023-03-30T07:43:35.772Z,3.70
2023-03-30T07:48:41.778Z,3.50
2023-03-30T07:54:12.575Z,3.30
2023-03-30T07:59:52.206Z,3.30
2023-03-30T08:05:19.104Z,3.30
2023-03-30T08:10:54.848Z,3.10
2023-03-30T08:16:00.579Z,2.90
2023-03-30T08:21:10.856Z,2.60
2023-03-30T08:26:19.122Z,2.60
2023-03-30T08:31:45.514Z,2.70
2023-03-30T08:36:50.214Z,3.30
2023-03-30T08:42:50.855Z,3.20
2023-03-30T08:48:26.123Z,3.10
2023-03-30T08:53:32.502Z,2.50
2023-03-30T08:58:47.027Z,2.50
2023-03-30T09:04:06.772Z,2.60
2023-03-30T09:09:32.358Z,2.60
2023-03-30T09:14:41.704Z,3.30
2023-03-30T09:20:00.161Z,2.50
2023-03-30T09:25:22.743Z,3.00
2023-03-30T09:30:47.169Z,2.60
2023-03-30T09:36:38.007Z,2.70
2023-03-30T09:41:53.746Z,2.40
2023-03-30T09:47:07.090Z,2.50
2023-03-30T09:52:32.047Z,2.50
2023-03-30T09:57:40.440Z,2.30
2023-03-30T10:03:07.434Z,2.60
2023-03-30T10:08:24.417Z,3.10
2023-03-30T10:13:53.953Z,2.60
2023-03-30T10:19:16.796Z,2.70
2023-03-30T10:24:28.208Z,3.00
2023-03-30T10:29:48.788Z,3.10
2023-03-30T10:34:57.868Z,3.00
2023-03-30T10:40:11.845Z,3.10
2023-03-30T10:45:50.496Z,3.10
2023-03-30T10:51:59.830Z,2.80
2023-03-30T10:57:28.746Z,2.90
2023-03-30T11:03:19.919Z,2.40
2023-03-30T11:08:51.720Z,2.20
2023-03-30T11:14:27.595Z,2.50
2023-03-30T11:19:36.877Z,3.20
2023-03-30T11:24:47.459Z,2.60
2023-03-30T11:30:37.031Z,2.80
2023-03-30T11:35:47.148Z,2.90
2023-03-30T11:40:51.864Z,3.10
2023-03-30T11:46:27.357Z,3.20
2023-03-30T11:51:46.177Z,3.20
2023-03-30T11:56:59.104Z,3.00
2023-03-30T12:02:16.834Z,3.20
2023-03-30T12:07:50.210Z,3.40
2023-03-30T12:19:27.633Z,2.90
2023-03-30T12:24:58.138Z,3.00
2023-03-30T12:30:27.031Z,3.10
2023-03-30T12:36:46.957Z,3.30
2023-03-30T12:43:04.423Z,3.70
2023-03-30T12:49:33.466Z,3.40
2023-03-30T12:55:19.516Z,2.80
2023-03-30T13:00:44.838Z,3.60
2023-03-30T13:05:53.316Z,3.80
2023-03-30T13:11:50.005Z,3.50
2023-03-30T13:17:27.276Z,3.20
2023-03-30T13:22:59.982Z,3.60
2023-03-30T13:29:15.726Z,3.20
2023-03-30T13:36:15.093Z,3.90
2023-03-30T13:42:25.819Z,3.80
2023-03-30T13:48:00.433Z,4.40
2023-03-30T13:53:09.568Z,3.30
2023-03-30T13:58:48.627Z,3.70
2023-03-30T14:04:22.129Z,3.70
2023-03-30T14:09:36.038Z,4.00
2023-03-30T14:14:47.278Z,4.30
2023-03-30T14:20:01.459Z,4.60
2023-03-30T14:25:23.385Z,5.00
2023-03-30T14:30:53.314Z,5.20
2023-03-30T14:36:11.690Z,5.90
2023-03-30T14:41:51.016Z,6.80
2023-03-30T14:47:56.210Z,6.30
2023-03-30T14:53:01.943Z,7.90
2023-03-30T14:58:17.678Z,7.00
2023-03-30T15:03:34.483Z,7.70
2023-03-30T15:09:26.265Z,7.10
2023-03-30T15:14:39.366Z,7.70
2023-03-30T15:20:12.446Z,7.00
2023-03-30T15:25:19.014Z,6.70
2023-03-30T15:30:38.040Z,7.30
2023-03-30T15:35:59.845Z,7.60
2023-03-30T15:42:11.012Z,8.20
2023-03-30T15:47:23.252Z,9.00
2023-03-30T15:53:21.102Z,11.20
2023-03-30T15:58:51.493Z,11.60
2023-03-30T16:04:37.213Z,13.30
2023-03-30T16:10:07.673Z,11.90
2023-03-30T16:15:35.551Z,12.00
2023-03-30T16:21:58.503Z,11.40
2023-03-30T16:27:24.337Z,10.90
2023-03-30T16:32:37.069Z,12.30
2023-03-30T16:37:40.479Z,11.60
2023-03-30T16:42:42.531Z,11.30
2023-03-30T16:47:47.425Z,12.80
2023-03-30T16:52:51.657Z,13.80
2023-03-30T16:58:00.396Z,13.10
2023-03-30T17:03:05.377Z,14.70
2023-03-30T17:08:31.433Z,13.60
2023-03-30T17:13:48.821Z,12.30
2023-03-30T17:18:51.353Z,10.90
2023-03-30T17:23:53.531Z,12.40
2023-03-30T17:28:58.107Z,11.50
2023-03-30T17:34:00.148Z,12.40
2023-03-30T17:39:06.306Z,12.40
2023-03-30T17:44:18.165Z,12.60
2023-03-30T17:49:25.820Z,12.50
2023-03-30T17:54:42.938Z,11.90
2023-03-30T17:59:56.431Z,13.10
2023-03-30T18:05:02.285Z,13.70
2023-03-30T18:10:25.705Z,14.60
2023-03-30T18:15:31.665Z,12.70
2023-03-30T18:20:41.190Z,13.50
2023-03-30T18:25:43.484Z,12.90
2023-03-30T18:30:46.370Z,13.40
2023-03-30T18:35:50.609Z,14.80
2023-03-30T18:40:58.589Z,13.20
2023-03-30T18:46:02.457Z,13.80
2023-03-30T18:51:04.877Z,14.50
2023-03-30T18:56:11.024Z,14.70
2023-03-30T19:01:21.986Z,13.70
2023-03-30T19:06:23.926Z,14.00
2023-03-30T19:11:27.373Z,13.30
2023-03-30T19:16:32.287Z,13.40
2023-03-30T19:21:37.980Z,13.40
2023-03-30T19:26:40.895Z,13.20
2023-03-30T19:31:44.439Z,13.50
2023-03-30T19:36:46.616Z,13.60
2023-03-30T19:41:52.110Z,12.70
2023-03-30T19:46:55.191Z,14.10
2023-03-30T19:52:05.259Z,13.60
2023-03-30T19:57:16.837Z,14.50
2023-03-30T20:02:21.914Z,13.30
2023-03-30T20:07:29.460Z,14.50
2023-03-30T20:13:27.331Z,14.00
2023-03-30T20:18:50.029Z,13.00
2023-03-30T20:23:56.096Z,13.50
2023-03-30T20:29:45.601Z,14.00
2023-03-30T20:35:41.832Z,14.00
2023-03-30T20:41:15.089Z,13.70
2023-03-30T20:46:21.935Z,15.20
2023-03-30T20:51:39.919Z,14.10
2023-03-30T20:56:44.830Z,15.10
2023-03-30T21:02:14.879Z,14.80
2023-03-30T21:07:20.107Z,14.30
2023-03-30T21:12:35.365Z,15.80
2023-03-30T21:18:14.195Z,14.70
2023-03-30T21:23:22.444Z,15.20
2023-03-30T21:28:55.976Z,16.40
2023-03-30T21:34:22.412Z,14.90
2023-03-30T21:39:35.685Z,16.00
2023-03-30T21:44:39.154Z,15.60
2023-03-30T21:49:52.634Z,15.50
2023-03-30T21:55:27.883Z,14.10
2023-03-30T22:01:39.578Z,16.30
2023-03-30T22:08:16.510Z,15.80
2023-03-30T22:14:36.333Z,14.00
2023-03-30T22:20:34.014Z,13.80
2023-03-30T22:26:43.083Z,14.20
2023-03-30T22:31:48.844Z,14.40
2023-03-30T22:36:57.940Z,13.70
2023-03-30T22:42:51.250Z,14.90
2023-03-30T22:48:24.489Z,15.00
2023-03-30T22:54:20.534Z,15.50
2023-03-30T23:00:31.759Z,14.10
2023-03-30T23:06:26.301Z,15.40
2023-03-30T23:12:42.165Z,15.40
2023-03-30T23:19:20.532Z,15.50
2023-03-30T23:25:49.936Z,14.80
2023-03-30T23:32:19.771Z,15.00
2023-03-30T23:38:19.028Z,14.80
2023-03-30T23:44:59.579Z,15.10
2023-03-30T23:51:00.893Z,14.80
2023-03-30T23:57:36.099Z,15.30
